This demonstration page uses our WeatherBlox Daily Observations layout. Learn more.

39.01783, -85.05884

Hourly Observations for June 12, 2019

Temp ( °F °C ) Dew Point ( °F °C ) Humidity (%) Winds ( mph kmh ) Pressure ( in mb ) Visibility ( mi km ) Precip ( " mm )
12:52 am 00:52 Partly Cloudy 63 17.2 47 8.3 56 56 Calm 30.06 1018 10 16.09344 0 0
1:52 am 01:52 Partly Cloudy 63 17.2 48 8.9 58 58 Calm 30.06 1018 10 16.09344 0 0
2:52 am 02:52 Partly Cloudy 61 16.1 49 9.4 65 65 NE 3 6 30.03 1017 10 16.09344 0 0
3:52 am 03:52 Mostly Cloudy 60 15.6 50 10 70 70 NE 3 6 30.03 1017 10 16.09344 0 0
4:52 am 04:52 Cloudy 59 15 51 10.6 75 75 ENE 3 6 30.03 1017 10 16.09344 0 0
5:52 am 05:52 Mostly Cloudy 61 16.1 51 10.6 70 70 NE 7 11 30 1016 10 16.09344 0 0
6:52 am 06:52 Mostly Cloudy 60 15.6 51 10.6 72 72 E 6 9 30 1016 10 16.09344 0 0
7:52 am 07:52 Mostly Cloudy 61 16.1 51 10.6 70 70 E 6 9 30 1016 10 16.09344 0 0
8:52 am 08:52 Mostly Cloudy 64 17.8 52 11.1 65 65 E 7 11 29.97 1015 10 16.09344 0 0
9:52 am 09:52 Partly Cloudy 68 20 51 10.6 55 55 E 13 20 29.94 1014 10 16.09344 0 0
10:52 am 10:52 Mostly Sunny 70 21.1 53 11.7 55 55 SSE 10 17 29.94 1014 10 16.09344 0 0
11:52 am 11:52 Mostly Sunny 73 22.8 54 12.2 51 51 SSE 9 15 29.91 1013 10 16.09344 0 0
12:52 pm 12:52 Mostly Cloudy 73 22.8 55 12.8 53 53 S 14 22 29.88 1012 10 16.09344 0 0
1:52 pm 13:52 Mostly Cloudy 73 22.8 57 13.9 57 57 S 10 17 29.88 1012 10 16.09344 0 0
2:52 pm 14:52 Cloudy 74 23.3 58 14.4 57 57 SSW 13 20 29.85 1011 10 16.09344 0 0
3:52 pm 15:52 Mostly Cloudy 75 23.9 59 15 58 58 SSW 12 19 29.83 1010 10 16.09344 0 0
4:52 pm 16:52 Cloudy 73 22.8 60 15.6 64 64 S 14 22 29.83 1010 10 16.09344 0 0
5:52 pm 17:52 Cloudy 71 21.7 59 15 66 66 S 13 20 29.8 1009 10 16.09344 0.001 0.001
6:52 pm 18:52 Cloudy with Light Rain 69 20.6 60 15.6 73 73 SSW 7 11 29.8 1009 10 16.09344 0.001 0.001
7:52 pm 19:52 Cloudy 68 20 62 16.7 81 81 S 9 15 29.8 1009 10 16.09344 0.01 0.254
8:52 pm 20:52 Cloudy 66 18.9 61 16.1 84 84 SSE 9 15 29.77 1008 10 16.09344 0 0
9:52 pm 21:52 Mostly Cloudy 65 18.3 61 16.1 87 87 S 8 13 29.77 1008 10 16.09344 0 0
10:52 pm 22:52 Cloudy 65 18.3 61 16.1 87 87 SSW 6 9 29.77 1008 10 16.09344 0 0
11:52 pm 23:52 Mostly Cloudy 64 17.8 61 16.1 90 90 S 9 15 29.77 1008 10 16.09344 0.001 0.001

Powered by AerisWeather